sensor_id;sensor_type;location;lat;lon;timestamp;pressure;altitude;pressure_sealevel;temperature;humidity
20983;BME280;10650;51.528;6.748;2023-04-21T00:01:35;101295.78;;;9.63;82.42
20983;BME280;10650;51.528;6.748;2023-04-21T00:04:04;101296.66;;;9.56;82.41
20983;BME280;10650;51.528;6.748;2023-04-21T00:06:35;101296.66;;;9.56;83.12
20983;BME280;10650;51.528;6.748;2023-04-21T00:09:03;101294.00;;;9.61;83.33
20983;BME280;10650;51.528;6.748;2023-04-21T00:11:31;101294.00;;;9.61;83.14
20983;BME280;10650;51.528;6.748;2023-04-21T00:13:58;101292.25;;;9.66;83.81
20983;BME280;10650;51.528;6.748;2023-04-21T00:16:26;101296.72;;;9.73;83.76
20983;BME280;10650;51.528;6.748;2023-04-21T00:18:54;101285.13;;;9.74;83.04
20983;BME280;10650;51.528;6.748;2023-04-21T00:21:22;101303.78;;;9.69;83.53
20983;BME280;10650;51.528;6.748;2023-04-21T00:23:52;101285.13;;;9.63;83.78
20983;BME280;10650;51.528;6.748;2023-04-21T00:26:19;101288.66;;;9.67;84.50
20983;BME280;10650;51.528;6.748;2023-04-21T00:28:47;101287.78;;;9.65;84.80
20983;BME280;10650;51.528;6.748;2023-04-21T00:31:15;101279.78;;;9.69;84.54
20983;BME280;10650;51.528;6.748;2023-04-21T00:33:43;101279.78;;;9.74;84.33
20983;BME280;10650;51.528;6.748;2023-04-21T00:36:11;101276.25;;;9.74;84.35
20983;BME280;10650;51.528;6.748;2023-04-21T00:38:39;101274.44;;;9.69;84.26
20983;BME280;10650;51.528;6.748;2023-04-21T00:41:08;101268.25;;;9.69;84.90
20983;BME280;10650;51.528;6.748;2023-04-21T00:43:35;101270.91;;;9.72;84.89
20983;BME280;10650;51.528;6.748;2023-04-21T00:46:03;101261.13;;;9.74;85.04
20983;BME280;10650;51.528;6.748;2023-04-21T00:48:31;101256.69;;;9.73;85.10
20983;BME280;10650;51.528;6.748;2023-04-21T00:50:59;101246.03;;;9.76;85.46
20983;BME280;10650;51.528;6.748;2023-04-21T00:53:27;101248.69;;;9.75;85.20
20983;BME280;10650;51.528;6.748;2023-04-21T00:55:55;101240.69;;;9.70;84.95
20983;BME280;10650;51.528;6.748;2023-04-21T00:58:24;101245.09;;;9.65;85.00
20983;BME280;10650;51.528;6.748;2023-04-21T01:00:52;101251.31;;;9.65;85.01
20983;BME280;10650;51.528;6.748;2023-04-21T01:03:20;101246.00;;;9.70;85.20
20983;BME280;10650;51.528;6.748;2023-04-21T01:05:48;101245.16;;;9.77;85.55
20983;BME280;10650;51.528;6.748;2023-04-21T01:08:16;101246.03;;;9.76;85.17
20983;BME280;10650;51.528;6.748;2023-04-21T01:10:43;101259.34;;;9.72;84.95
20983;BME280;10650;51.528;6.748;2023-04-21T01:13:11;101253.09;;;9.68;85.58
20983;BME280;10650;51.528;6.748;2023-04-21T01:15:40;101255.78;;;9.66;86.18
20983;BME280;10650;51.528;6.748;2023-04-21T01:18:08;101252.22;;;9.67;86.34
20983;BME280;10650;51.528;6.748;2023-04-21T01:20:37;101244.22;;;9.66;86.30
20983;BME280;10650;51.528;6.748;2023-04-21T01:23:06;101247.75;;;9.65;86.35
20983;BME280;10650;51.528;6.748;2023-04-21T01:25:34;101239.75;;;9.59;86.42
20983;BME280;10650;51.528;6.748;2023-04-21T01:28:02;101241.50;;;9.60;86.59
20983;BME280;10650;51.528;6.748;2023-04-21T01:30:30;101245.09;;;9.62;86.72
20983;BME280;10650;51.528;6.748;2023-04-21T01:32:58;101240.63;;;9.61;86.93
20983;BME280;10650;51.528;6.748;2023-04-21T01:35:26;101231.75;;;9.60;86.72
20983;BME280;10650;51.528;6.748;2023-04-21T01:37:54;101222.84;;;9.61;86.80
20983;BME280;10650;51.528;6.748;2023-04-21T01:40:23;101238.84;;;9.55;86.68
20983;BME280;10650;51.528;6.748;2023-04-21T01:42:50;101234.38;;;9.52;87.80
20983;BME280;10650;51.528;6.748;2023-04-21T01:45:18;101229.97;;;9.56;87.91
20983;BME280;10650;51.528;6.748;2023-04-21T01:47:46;101229.97;;;9.59;87.74
20983;BME280;10650;51.528;6.748;2023-04-21T01:50:14;101243.31;;;9.61;87.78
20983;BME280;10650;51.528;6.748;2023-04-21T01:52:42;101237.09;;;9.63;87.54
20983;BME280;10650;51.528;6.748;2023-04-21T01:55:10;101226.41;;;9.62;87.58
20983;BME280;10650;51.528;6.748;2023-04-21T01:57:39;101223.75;;;9.65;88.23
20983;BME280;10650;51.528;6.748;2023-04-21T02:00:08;101221.09;;;9.69;87.92
20983;BME280;10650;51.528;6.748;2023-04-21T02:02:36;101215.78;;;9.76;87.86
20983;BME280;10650;51.528;6.748;2023-04-21T02:05:04;101212.22;;;9.75;88.12
20983;BME280;10650;51.528;6.748;2023-04-21T02:07:32;101211.28;;;9.65;87.97
20983;BME280;10650;51.528;6.748;2023-04-21T02:10:00;101205.09;;;9.62;87.74
20983;BME280;10650;51.528;6.748;2023-04-21T02:12:28;101212.22;;;9.63;88.15
20983;BME280;10650;51.528;6.748;2023-04-21T02:14:57;101220.22;;;9.64;88.62
20983;BME280;10650;51.528;6.748;2023-04-21T02:17:25;101227.31;;;9.67;88.07
20983;BME280;10650;51.528;6.748;2023-04-21T02:19:53;101230.00;;;9.72;88.67
20983;BME280;10650;51.528;6.748;2023-04-21T02:22:21;101216.66;;;9.75;88.76
20983;BME280;10650;51.528;6.748;2023-04-21T02:24:49;101211.34;;;9.78;88.81
20983;BME280;10650;51.528;6.748;2023-04-21T02:27:17;101219.34;;;9.79;88.18
20983;BME280;10650;51.528;6.748;2023-04-21T02:29:45;101210.47;;;9.80;88.13
20983;BME280;10650;51.528;6.748;2023-04-21T02:32:14;101213.13;;;9.82;88.05
20983;BME280;10650;51.528;6.748;2023-04-21T02:34:51;101214.91;;;9.86;88.38
20983;BME280;10650;51.528;6.748;2023-04-21T02:37:19;101208.66;;;9.87;88.48
20983;BME280;10650;51.528;6.748;2023-04-21T02:39:47;101206.00;;;9.87;88.59
20983;BME280;10650;51.528;6.748;2023-04-21T02:42:14;101209.56;;;9.89;88.98
20983;BME280;10650;51.528;6.748;2023-04-21T02:44:42;101196.22;;;9.92;88.48
20983;BME280;10650;51.528;6.748;2023-04-21T02:47:10;101201.56;;;9.91;88.35
20983;BME280;10650;51.528;6.748;2023-04-21T02:49:42;101205.13;;;9.86;88.42
20983;BME280;10650;51.528;6.748;2023-04-21T02:52:10;101204.22;;;9.81;88.01
20983;BME280;10650;51.528;6.748;2023-04-21T02:54:38;101207.78;;;9.79;88.54
20983;BME280;10650;51.528;6.748;2023-04-21T02:57:05;101206.88;;;9.80;88.91
20983;BME280;10650;51.528;6.748;2023-04-21T02:59:33;101208.66;;;9.81;88.72
20983;BME280;10650;51.528;6.748;2023-04-21T03:02:01;101201.56;;;9.83;88.24
20983;BME280;10650;51.528;6.748;2023-04-21T03:04:29;101205.13;;;9.83;88.86
20983;BME280;10650;51.528;6.748;2023-04-21T03:06:59;101206.00;;;9.85;88.64
20983;BME280;10650;51.528;6.748;2023-04-21T03:09:27;101212.25;;;9.86;88.67
20983;BME280;10650;51.528;6.748;2023-04-21T03:11:55;101201.56;;;9.86;89.03
20983;BME280;10650;51.528;6.748;2023-04-21T03:14:23;101199.78;;;9.83;88.32
20983;BME280;10650;51.528;6.748;2023-04-21T03:16:50;101201.53;;;9.80;88.26
20983;BME280;10650;51.528;6.748;2023-04-21T03:19:18;101198.88;;;9.77;88.71
20983;BME280;10650;51.528;6.748;2023-04-21T03:21:47;101201.53;;;9.77;88.65
20983;BME280;10650;51.528;6.748;2023-04-21T03:24:16;101206.00;;;9.75;89.28
20983;BME280;10650;51.528;6.748;2023-04-21T03:26:44;101205.09;;;9.74;88.95
20983;BME280;10650;51.528;6.748;2023-04-21T03:29:12;101204.22;;;9.72;88.88
20983;BME280;10650;51.528;6.748;2023-04-21T03:31:40;101208.66;;;9.76;89.37
20983;BME280;10650;51.528;6.748;2023-04-21T03:34:08;101206.00;;;9.78;89.58
20983;BME280;10650;51.528;6.748;2023-04-21T03:36:36;101212.22;;;9.78;89.68
20983;BME280;10650;51.528;6.748;2023-04-21T03:39:04;101207.75;;;9.74;89.16
20983;BME280;10650;51.528;6.748;2023-04-21T03:41:47;101206.00;;;9.75;89.49
20983;BME280;10650;51.528;6.748;2023-04-21T03:44:24;101209.53;;;9.69;89.29
20983;BME280;10650;51.528;6.748;2023-04-21T03:46:51;101206.88;;;9.70;89.52
20983;BME280;10650;51.528;6.748;2023-04-21T03:49:20;101201.53;;;9.75;89.64
20983;BME280;10650;51.528;6.748;2023-04-21T03:51:48;101210.41;;;9.69;89.70
20983;BME280;10650;51.528;6.748;2023-04-21T03:54:16;101197.09;;;9.66;89.84
20983;BME280;10650;51.528;6.748;2023-04-21T03:56:43;101206.88;;;9.69;89.97
20983;BME280;10650;51.528;6.748;2023-04-21T03:59:13;101204.22;;;9.69;89.42
20983;BME280;10650;51.528;6.748;2023-04-21T04:01:40;101205.09;;;9.66;89.78
20983;BME280;10650;51.528;6.748;2023-04-21T04:04:08;101192.63;;;9.68;90.12
20983;BME280;10650;51.528;6.748;2023-04-21T04:06:36;101192.63;;;9.67;90.20
20983;BME280;10650;51.528;6.748;2023-04-21T04:09:04;101194.41;;;9.68;89.84
20983;BME280;10650;51.528;6.748;2023-04-21T04:11:34;101193.53;;;9.69;89.89
20983;BME280;10650;51.528;6.748;2023-04-21T04:14:02;101202.41;;;9.68;90.14
20983;BME280;10650;51.528;6.748;2023-04-21T04:16:32;101188.19;;;9.66;89.88
20983;BME280;10650;51.528;6.748;2023-04-21T04:19:00;101188.16;;;9.61;90.00
20983;BME280;10650;51.528;6.748;2023-04-21T04:21:29;101189.06;;;9.62;90.38
20983;BME280;10650;51.528;6.748;2023-04-21T04:23:58;101194.41;;;9.63;90.12
20983;BME280;10650;51.528;6.748;2023-04-21T04:26:26;101198.88;;;9.63;90.14
20983;BME280;10650;51.528;6.748;2023-04-21T04:28:54;101197.97;;;9.64;90.44
20983;BME280;10650;51.528;6.748;2023-04-21T04:31:22;101197.06;;;9.60;89.92
20983;BME280;10650;51.528;6.748;2023-04-21T04:33:52;101187.28;;;9.61;90.38
20983;BME280;10650;51.528;6.748;2023-04-21T04:36:21;101193.50;;;9.60;90.30
20983;BME280;10650;51.528;6.748;2023-04-21T04:38:49;101197.06;;;9.59;90.07
20983;BME280;10650;51.528;6.748;2023-04-21T04:41:17;101190.81;;;9.60;90.58
20983;BME280;10650;51.528;6.748;2023-04-21T04:43:46;101191.75;;;9.62;90.90
20983;BME280;10650;51.528;6.748;2023-04-21T04:46:14;101205.09;;;9.65;90.43
20983;BME280;10650;51.528;6.748;2023-04-21T04:48:42;101204.22;;;9.67;90.38
20983;BME280;10650;51.528;6.748;2023-04-21T04:51:11;101207.75;;;9.69;90.62
20983;BME280;10650;51.528;6.748;2023-04-21T04:53:39;101197.09;;;9.71;90.43
20983;BME280;10650;51.528;6.748;2023-04-21T04:56:07;101203.34;;;9.76;90.63
20983;BME280;10650;51.528;6.748;2023-04-21T04:58:35;101202.41;;;9.74;90.43
20983;BME280;10650;51.528;6.748;2023-04-21T05:01:10;101213.09;;;9.73;90.49
20983;BME280;10650;51.528;6.748;2023-04-21T05:03:39;101219.34;;;9.76;90.57
20983;BME280;10650;51.528;6.748;2023-04-21T05:06:07;101215.78;;;9.77;90.39
20983;BME280;10650;51.528;6.748;2023-04-21T05:08:36;101214.88;;;9.77;90.20
20983;BME280;10650;51.528;6.748;2023-04-21T05:11:06;101221.13;;;9.80;90.83
20983;BME280;10650;51.528;6.748;2023-04-21T05:13:33;101216.66;;;9.81;90.68
20983;BME280;10650;51.528;6.748;2023-04-21T05:16:06;101210.47;;;9.83;90.54
20983;BME280;10650;51.528;6.748;2023-04-21T05:18:35;101220.25;;;9.87;90.76
20983;BME280;10650;51.528;6.748;2023-04-21T05:21:03;101218.47;;;9.88;90.50
20983;BME280;10650;51.528;6.748;2023-04-21T05:23:30;101211.38;;;9.90;90.79
20983;BME280;10650;51.528;6.748;2023-04-21T05:26:00;101221.13;;;9.93;90.36
20983;BME280;10650;51.528;6.748;2023-04-21T05:28:30;101222.03;;;9.93;90.52
20983;BME280;10650;51.528;6.748;2023-04-21T05:30:58;101221.16;;;9.96;90.77
20983;BME280;10650;51.528;6.748;2023-04-21T05:33:29;101214.91;;;10.00;90.14
20983;BME280;10650;51.528;6.748;2023-04-21T05:35:57;101216.69;;;10.05;90.20
20983;BME280;10650;51.528;6.748;2023-04-21T05:38:25;101225.63;;;10.08;90.00
20983;BME280;10650;51.528;6.748;2023-04-21T05:40:53;101224.72;;;10.10;90.20
20983;BME280;10650;51.528;6.748;2023-04-21T05:43:23;101228.28;;;10.14;89.73
20983;BME280;10650;51.528;6.748;2023-04-21T05:45:51;101222.94;;;10.17;89.73
20983;BME280;10650;51.528;6.748;2023-04-21T05:48:19;101228.31;;;10.23;89.37
20983;BME280;10650;51.528;6.748;2023-04-21T05:50:46;101229.16;;;10.28;89.23
20983;BME280;10650;51.528;6.748;2023-04-21T05:53:14;101237.19;;;10.33;89.17
20983;BME280;10650;51.528;6.748;2023-04-21T05:55:42;101230.97;;;10.38;89.59
20983;BME280;10650;51.528;6.748;2023-04-21T05:58:10;101234.56;;;10.44;89.32
20983;BME280;10650;51.528;6.748;2023-04-21T06:00:39;101230.09;;;10.43;88.79
20983;BME280;10650;51.528;6.748;2023-04-21T06:03:07;101229.22;;;10.41;89.09
20983;BME280;10650;51.528;6.748;2023-04-21T06:05:35;101229.22;;;10.41;88.97
20983;BME280;10650;51.528;6.748;2023-04-21T06:08:04;101217.63;;;10.40;89.06
20983;BME280;10650;51.528;6.748;2023-04-21T06:10:33;101217.66;;;10.43;89.69
20983;BME280;10650;51.528;6.748;2023-04-21T06:13:06;101219.41;;;10.52;89.97
20983;BME280;10650;51.528;6.748;2023-04-21T06:15:34;101213.16;;;10.65;90.10
20983;BME280;10650;51.528;6.748;2023-04-21T06:18:03;101211.31;;;10.83;90.73
20983;BME280;10650;51.528;6.748;2023-04-21T06:20:31;101213.09;;;10.98;90.76
20983;BME280;10650;51.528;6.748;2023-04-21T06:22:59;101216.63;;;11.01;89.12
20983;BME280;10650;51.528;6.748;2023-04-21T06:25:27;101214.84;;;11.03;88.63
20983;BME280;10650;51.528;6.748;2023-04-21T06:27:55;101216.63;;;11.07;88.62
20983;BME280;10650;51.528;6.748;2023-04-21T06:30:23;101217.47;;;11.16;88.66
20983;BME280;10650;51.528;6.748;2023-04-21T06:32:51;101225.47;;;11.22;88.04
20983;BME280;10650;51.528;6.748;2023-04-21T06:35:20;101237.91;;;11.26;88.05
20983;BME280;10650;51.528;6.748;2023-04-21T06:37:48;101220.97;;;11.35;88.97
20983;BME280;10650;51.528;6.748;2023-04-21T06:40:17;101214.66;;;11.47;88.78
20983;BME280;10650;51.528;6.748;2023-04-21T06:42:44;101224.47;;;11.48;87.80
20983;BME280;10650;51.528;6.748;2023-04-21T06:45:12;101217.34;;;11.43;86.94
20983;BME280;10650;51.528;6.748;2023-04-21T06:47:40;101210.16;;;11.50;87.64
20983;BME280;10650;51.528;6.748;2023-04-21T06:50:10;101212.84;;;11.56;87.84
20983;BME280;10650;51.528;6.748;2023-04-21T06:52:41;101201.22;;;11.54;87.03
20983;BME280;10650;51.528;6.748;2023-04-21T06:55:09;101205.75;;;11.49;86.35
20983;BME280;10650;51.528;6.748;2023-04-21T06:57:37;101211.09;;;11.49;87.13
20983;BME280;10650;51.528;6.748;2023-04-21T07:00:06;101205.75;;;11.49;87.83
20983;BME280;10650;51.528;6.748;2023-04-21T07:02:35;101211.06;;;11.54;88.05
20983;BME280;10650;51.528;6.748;2023-04-21T07:05:03;101209.25;;;11.54;87.48
20983;BME280;10650;51.528;6.748;2023-04-21T07:07:31;101205.72;;;11.52;87.31
20983;BME280;10650;51.528;6.748;2023-04-21T07:10:00;101216.41;;;11.52;87.37
20983;BME280;10650;51.528;6.748;2023-04-21T07:12:28;101207.47;;;11.56;88.03
20983;BME280;10650;51.528;6.748;2023-04-21T07:14:56;101210.13;;;11.59;88.19
20983;BME280;10650;51.528;6.748;2023-04-21T07:17:24;101206.53;;;11.64;88.52
20983;BME280;10650;51.528;6.748;2023-04-21T07:19:52;101209.19;;;11.68;88.19
20983;BME280;10650;51.528;6.748;2023-04-21T07:22:20;101202.94;;;11.71;88.04
20983;BME280;10650;51.528;6.748;2023-04-21T07:24:48;101212.72;;;11.70;88.20
20983;BME280;10650;51.528;6.748;2023-04-21T07:30:28;101208.31;;;11.65;88.56
20983;BME280;10650;51.528;6.748;2023-04-21T07:32:57;101202.94;;;11.72;88.83
20983;BME280;10650;51.528;6.748;2023-04-21T07:35:25;101202.88;;;11.78;88.19
20983;BME280;10650;51.528;6.748;2023-04-21T07:38:10;101198.38;;;11.84;87.45
20983;BME280;10650;51.528;6.748;2023-04-21T07:40:42;101195.63;;;11.93;87.52
20983;BME280;10650;51.528;6.748;2023-04-21T07:43:12;101197.34;;;12.08;87.44
20983;BME280;10650;51.528;6.748;2023-04-21T07:49:22;101192.72;;;12.28;86.49
20983;BME280;10650;51.528;6.748;2023-04-21T07:51:50;101191.81;;;12.31;85.62
20983;BME280;10650;51.528;6.748;2023-04-21T07:54:36;101192.72;;;12.27;84.65
20983;BME280;10650;51.528;6.748;2023-04-21T07:57:10;101191.78;;;12.34;85.07
20983;BME280;10650;51.528;6.748;2023-04-21T07:59:39;101193.44;;;12.46;85.31
20983;BME280;10650;51.528;6.748;2023-04-21T08:02:08;101191.63;;;12.51;84.02
20983;BME280;10650;51.528;6.748;2023-04-21T08:04:37;101186.16;;;12.60;84.22
20983;BME280;10650;51.528;6.748;2023-04-21T08:07:06;101196.63;;;12.84;85.19
20983;BME280;10650;51.528;6.748;2023-04-21T08:09:37;101191.94;;;13.04;84.77
20983;BME280;10650;51.528;6.748;2023-04-21T08:12:10;101188.09;;;13.25;84.68
20983;BME280;10650;51.528;6.748;2023-04-21T08:14:38;101184.31;;;13.43;84.39
20983;BME280;10650;51.528;6.748;2023-04-21T08:17:06;101185.03;;;13.56;84.54
20983;BME280;10650;51.528;6.748;2023-04-21T08:19:34;101185.91;;;13.57;83.32
20983;BME280;10650;51.528;6.748;2023-04-21T08:22:08;101196.66;;;13.55;82.53
20983;BME280;10650;51.528;6.748;2023-04-21T08:24:36;101191.25;;;13.57;82.11
20983;BME280;10650;51.528;6.748;2023-04-21T08:27:05;101183.16;;;13.61;82.49
20983;BME280;10650;51.528;6.748;2023-04-21T08:29:33;101191.19;;;13.63;82.00
20983;BME280;10650;51.528;6.748;2023-04-21T08:32:07;101186.56;;;13.74;82.10
20983;BME280;10650;51.528;6.748;2023-04-21T08:34:35;101191.94;;;13.73;80.84
20983;BME280;10650;51.528;6.748;2023-04-21T08:37:05;101192.69;;;13.81;80.52
20983;BME280;10650;51.528;6.748;2023-04-21T08:39:33;101189.00;;;13.91;80.42
20983;BME280;10650;51.528;6.748;2023-04-21T08:42:16;101201.34;;;14.01;80.55
20983;BME280;10650;51.528;6.748;2023-04-21T08:44:49;101199.47;;;14.07;79.61
20983;BME280;10650;51.528;6.748;2023-04-21T08:47:17;101202.22;;;14.04;79.20
20983;BME280;10650;51.528;6.748;2023-04-21T08:49:49;101195.84;;;14.09;80.10
20983;BME280;10650;51.528;6.748;2023-04-21T08:52:18;101199.28;;;14.19;79.88
20983;BME280;10650;51.528;6.748;2023-04-21T08:54:48;101190.28;;;14.22;78.84
20983;BME280;10650;51.528;6.748;2023-04-21T08:57:19;101196.41;;;14.31;79.84
20983;BME280;10650;51.528;6.748;2023-04-21T08:59:47;101189.00;;;14.44;79.52
20983;BME280;10650;51.528;6.748;2023-04-21T09:02:17;101187.91;;;14.54;78.95
20983;BME280;10650;51.528;6.748;2023-04-21T09:04:47;101193.06;;;14.67;78.47
20983;BME280;10650;51.528;6.748;2023-04-21T09:07:31;101195.53;;;14.79;77.42
20983;BME280;10650;51.528;6.748;2023-04-21T09:09:59;101196.38;;;14.81;77.42
20983;BME280;10650;51.528;6.748;2023-04-21T09:12:31;101195.34;;;14.88;77.05
20983;BME280;10650;51.528;6.748;2023-04-21T09:15:05;101194.44;;;14.90;75.67
20983;BME280;10650;51.528;6.748;2023-04-21T09:17:34;101192.72;;;14.85;75.54
20983;BME280;10650;51.528;6.748;2023-04-21T09:20:12;101190.75;;;14.95;75.78
20983;BME280;10650;51.528;6.748;2023-04-21T09:22:43;101180.97;;;14.91;74.20
20983;BME280;10650;51.528;6.748;2023-04-21T09:25:15;101197.06;;;14.93;74.98
20983;BME280;10650;51.528;6.748;2023-04-21T09:27:43;101194.28;;;14.99;75.30
20983;BME280;10650;51.528;6.748;2023-04-21T09:30:18;101201.34;;;15.04;75.28
20983;BME280;10650;51.528;6.748;2023-04-21T09:32:55;101196.63;;;15.14;75.49
20983;BME280;10650;51.528;6.748;2023-04-21T09:35:26;101190.47;;;15.09;74.48
20983;BME280;10650;51.528;6.748;2023-04-21T09:37:55;101186.88;;;15.09;73.84
20983;BME280;10650;51.528;6.748;2023-04-21T09:40:23;101192.94;;;15.20;74.69
20983;BME280;10650;51.528;6.748;2023-04-21T09:42:51;101188.31;;;15.27;73.52
20983;BME280;10650;51.528;6.748;2023-04-21T09:45:19;101179.97;;;15.39;73.96
20983;BME280;10650;51.528;6.748;2023-04-21T09:48:06;101181.69;;;15.43;72.50
20983;BME280;10650;51.528;6.748;2023-04-21T09:50:36;101181.59;;;15.48;71.98
20983;BME280;10650;51.528;6.748;2023-04-21T09:53:27;101178.69;;;15.55;71.95
20983;BME280;10650;51.528;6.748;2023-04-21T09:55:57;101175.44;;;15.41;70.97
20983;BME280;10650;51.528;6.748;2023-04-21T09:58:27;101168.09;;;15.49;70.96
20983;BME280;10650;51.528;6.748;2023-04-21T10:00:58;101172.97;;;15.71;71.11
20983;BME280;10650;51.528;6.748;2023-04-21T10:03:34;101179.63;;;15.95;70.76
20983;BME280;10650;51.528;6.748;2023-04-21T10:06:06;101175.56;;;16.13;70.92
20983;BME280;10650;51.528;6.748;2023-04-21T10:08:36;101175.25;;;16.25;70.44
20983;BME280;10650;51.528;6.748;2023-04-21T10:11:08;101158.88;;;16.35;68.99
20983;BME280;10650;51.528;6.748;2023-04-21T10:13:36;101160.06;;;16.23;67.70
20983;BME280;10650;51.528;6.748;2023-04-21T10:16:06;101154.09;;;16.10;68.06
20983;BME280;10650;51.528;6.748;2023-04-21T10:18:35;101148.69;;;16.10;68.38
20983;BME280;10650;51.528;6.748;2023-04-21T10:21:07;101149.59;;;16.11;69.32
20983;BME280;10650;51.528;6.748;2023-04-21T10:23:38;101148.81;;;16.05;68.44
20983;BME280;10650;51.528;6.748;2023-04-21T10:26:09;101143.69;;;15.96;68.54
20983;BME280;10650;51.528;6.748;2023-04-21T10:28:47;101150.91;;;15.94;69.31
20983;BME280;10650;51.528;6.748;2023-04-21T10:31:17;101156.13;;;16.00;68.88
20983;BME280;10650;51.528;6.748;2023-04-21T10:34:20;101143.69;;;15.95;67.78
20983;BME280;10650;51.528;6.748;2023-04-21T10:37:07;101144.47;;;16.00;67.84
20983;BME280;10650;51.528;6.748;2023-04-21T10:39:50;101137.97;;;16.08;67.47
20983;BME280;10650;51.528;6.748;2023-04-21T10:42:26;101127.69;;;16.23;68.07
20983;BME280;10650;51.528;6.748;2023-04-21T10:45:09;101135.38;;;16.38;66.94
20983;BME280;10650;51.528;6.748;2023-04-21T10:47:46;101133.13;;;16.56;66.53
20983;BME280;10650;51.528;6.748;2023-04-21T10:50:20;101136.44;;;16.66;65.75
20983;BME280;10650;51.528;6.748;2023-04-21T10:52:54;101122.09;;;16.65;64.73
20983;BME280;10650;51.528;6.748;2023-04-21T10:55:27;101125.03;;;16.56;64.35
20983;BME280;10650;51.528;6.748;2023-04-21T10:57:55;101123.22;;;16.56;64.90
20983;BME280;10650;51.528;6.748;2023-04-21T11:00:25;101123.34;;;16.52;65.06
20983;BME280;10650;51.528;6.748;2023-04-21T11:02:54;101120.69;;;16.50;65.67
20983;BME280;10650;51.528;6.748;2023-04-21T11:05:33;101121.41;;;16.57;64.85
20983;BME280;10650;51.528;6.748;2023-04-21T11:08:12;101123.28;;;16.55;65.28
20983;BME280;10650;51.528;6.748;2023-04-21T11:10:44;101126.16;;;16.47;64.87
20983;BME280;10650;51.528;6.748;2023-04-21T11:13:12;101112.03;;;16.37;64.92
20983;BME280;10650;51.528;6.748;2023-04-21T11:15:40;101103.16;;;16.34;65.10
20983;BME280;10650;51.528;6.748;2023-04-21T11:18:08;101100.34;;;16.38;64.60
20983;BME280;10650;51.528;6.748;2023-04-21T11:20:39;101098.56;;;16.37;65.09
20983;BME280;10650;51.528;6.748;2023-04-21T11:23:16;101090.19;;;16.48;65.03
20983;BME280;10650;51.528;6.748;2023-04-21T11:25:46;101086.53;;;16.51;64.40
20983;BME280;10650;51.528;6.748;2023-04-21T11:28:20;101086.47;;;16.52;64.32
20983;BME280;10650;51.528;6.748;2023-04-21T11:30:50;101086.16;;;16.63;64.29
20983;BME280;10650;51.528;6.748;2023-04-21T11:33:18;101075.06;;;16.74;63.92
20983;BME280;10650;51.528;6.748;2023-04-21T11:35:46;101074.25;;;16.70;63.97
20983;BME280;10650;51.528;6.748;2023-04-21T11:38:15;101077.44;;;16.85;64.16
20983;BME280;10650;51.528;6.748;2023-04-21T11:40:47;101070.75;;;17.00;63.77
20983;BME280;10650;51.528;6.748;2023-04-21T11:43:15;101064.19;;;17.08;62.86
20983;BME280;10650;51.528;6.748;2023-04-21T11:45:48;101071.25;;;17.12;63.61
20983;BME280;10650;51.528;6.748;2023-04-21T11:48:17;101070.50;;;17.07;62.40
20983;BME280;10650;51.528;6.748;2023-04-21T11:50:47;101066.16;;;17.02;62.39
20983;BME280;10650;51.528;6.748;2023-04-21T11:53:15;101062.66;;;17.00;62.33
20983;BME280;10650;51.528;6.748;2023-04-21T11:55:46;101052.06;;;16.92;62.25
20983;BME280;10650;51.528;6.748;2023-04-21T11:58:14;101050.22;;;16.94;62.75
20983;BME280;10650;51.528;6.748;2023-04-21T12:00:43;101046.34;;;17.03;63.18
20983;BME280;10650;51.528;6.748;2023-04-21T12:03:13;101044.97;;;17.18;63.27
20983;BME280;10650;51.528;6.748;2023-04-21T12:05:42;101038.28;;;17.31;62.79
20983;BME280;10650;51.528;6.748;2023-04-21T12:08:13;101031.47;;;17.46;62.35
20983;BME280;10650;51.528;6.748;2023-04-21T12:10:47;101032.53;;;17.69;61.82
20983;BME280;10650;51.528;6.748;2023-04-21T12:13:21;101023.13;;;17.80;61.35
20983;BME280;10650;51.528;6.748;2023-04-21T12:15:50;101022.78;;;17.91;61.72
20983;BME280;10650;51.528;6.748;2023-04-21T12:18:18;101021.56;;;18.00;59.80
20983;BME280;10650;51.528;6.748;2023-04-21T12:20:53;101019.63;;;18.04;59.90
20983;BME280;10650;51.528;6.748;2023-04-21T12:23:22;101011.47;;;18.05;60.36
20983;BME280;10650;51.528;6.748;2023-04-21T12:25:51;101003.91;;;18.15;59.99
20983;BME280;10650;51.528;6.748;2023-04-21T12:28:19;101006.94;;;18.31;58.97
20983;BME280;10650;51.528;6.748;2023-04-21T12:30:48;101002.44;;;18.31;57.64
20983;BME280;10650;51.528;6.748;2023-04-21T12:33:16;100982.03;;;18.23;57.66
20983;BME280;10650;51.528;6.748;2023-04-21T12:35:44;100971.56;;;18.37;57.88
20983;BME280;10650;51.528;6.748;2023-04-21T12:38:12;100971.69;;;18.34;56.67
20983;BME280;10650;51.528;6.748;2023-04-21T12:40:40;100971.22;;;18.23;56.69
20983;BME280;10650;51.528;6.748;2023-04-21T12:43:10;100961.19;;;18.25;57.61
20983;BME280;10650;51.528;6.748;2023-04-21T12:45:38;100952.25;;;18.46;56.81
20983;BME280;10650;51.528;6.748;2023-04-21T12:48:06;100951.75;;;18.60;57.11
20983;BME280;10650;51.528;6.748;2023-04-21T12:50:35;100947.72;;;18.71;56.62
20983;BME280;10650;51.528;6.748;2023-04-21T12:53:05;100941.00;;;18.81;56.96
20983;BME280;10650;51.528;6.748;2023-04-21T12:55:33;100944.47;;;18.84;56.29
20983;BME280;10650;51.528;6.748;2023-04-21T12:58:04;100947.81;;;18.91;56.58
20983;BME280;10650;51.528;6.748;2023-04-21T13:00:36;100948.66;;;18.93;55.18
20983;BME280;10650;51.528;6.748;2023-04-21T13:03:04;100947.19;;;18.84;55.39
20983;BME280;10650;51.528;6.748;2023-04-21T13:05:37;100941.25;;;18.75;55.37
20983;BME280;10650;51.528;6.748;2023-04-21T13:08:05;100931.03;;;18.59;55.14
20983;BME280;10650;51.528;6.748;2023-04-21T13:10:34;100933.56;;;18.64;55.83
20983;BME280;10650;51.528;6.748;2023-04-21T13:13:02;100920.72;;;18.69;55.54
20983;BME280;10650;51.528;6.748;2023-04-21T13:15:30;100933.13;;;18.75;55.51